createdAt,value
2022-12-11T00:01:43.065Z,1.40
2022-12-11T00:06:45.332Z,1.40
2022-12-11T00:11:47.656Z,1.40
2022-12-11T00:16:50.065Z,1.40
2022-12-11T00:21:52.877Z,1.40
2022-12-11T00:26:55.176Z,1.30
2022-12-11T00:31:57.674Z,1.30
2022-12-11T00:37:00.069Z,1.30
2022-12-11T00:42:02.425Z,1.30
2022-12-11T00:47:04.657Z,1.30
2022-12-11T00:52:06.869Z,1.30
2022-12-11T00:57:09.224Z,1.30
2022-12-11T01:02:11.455Z,1.30
2022-12-11T01:07:13.798Z,1.30
2022-12-11T01:12:16.062Z,1.30
2022-12-11T01:17:18.275Z,1.20
2022-12-11T01:22:20.607Z,1.30
2022-12-11T01:27:23.017Z,1.30
2022-12-11T01:32:25.250Z,1.30
2022-12-11T01:37:27.467Z,1.30
2022-12-11T01:42:29.717Z,1.30
2022-12-11T01:47:32.043Z,1.20
2022-12-11T01:52:34.494Z,1.30
2022-12-11T01:57:41.237Z,1.20
2022-12-11T02:02:43.986Z,1.20
2022-12-11T02:07:50.661Z,1.20
2022-12-11T02:13:05.517Z,1.20
2022-12-11T02:18:34.030Z,1.30
2022-12-11T02:24:01.480Z,1.30
2022-12-11T02:29:13.038Z,1.30
2022-12-11T02:34:18.776Z,1.20
2022-12-11T02:39:22.827Z,1.20
2022-12-11T02:44:29.441Z,1.20
2022-12-11T02:49:33.931Z,1.20
2022-12-11T02:54:38.051Z,1.20
2022-12-11T02:59:44.167Z,1.20
2022-12-11T03:04:47.706Z,1.20
2022-12-11T03:09:51.272Z,1.20
2022-12-11T03:14:53.773Z,1.20
2022-12-11T03:20:09.863Z,1.10
2022-12-11T03:25:24.589Z,1.10
2022-12-11T03:30:28.972Z,1.10
2022-12-11T03:35:48.478Z,1.10
2022-12-11T03:40:55.751Z,1.10
2022-12-11T03:45:59.754Z,1.10
2022-12-11T03:51:05.248Z,1.10
2022-12-11T03:56:10.318Z,1.10
2022-12-11T04:01:12.801Z,0.90
2022-12-11T04:06:15.226Z,1.00
2022-12-11T04:11:35.878Z,1.00
2022-12-11T04:16:38.523Z,1.00
2022-12-11T04:21:59.435Z,1.00
2022-12-11T04:27:02.403Z,0.90
2022-12-11T04:32:05.054Z,0.90
2022-12-11T04:37:07.479Z,0.90
2022-12-11T04:42:09.893Z,0.90
2022-12-11T04:47:12.374Z,0.80
2022-12-11T04:52:14.742Z,0.90
2022-12-11T04:57:17.212Z,0.90
2022-12-11T05:02:20.760Z,0.90
2022-12-11T05:07:23.098Z,0.90
2022-12-11T05:12:25.532Z,0.80
2022-12-11T05:17:27.946Z,0.80
2022-12-11T05:22:31.990Z,0.80
2022-12-11T05:27:35.126Z,0.80
2022-12-11T05:32:37.615Z,0.80
2022-12-11T05:37:40.031Z,0.80
2022-12-11T05:42:42.294Z,0.80
2022-12-11T05:47:44.504Z,0.90
2022-12-11T05:52:46.768Z,0.80
2022-12-11T05:57:49.037Z,0.80
2022-12-11T06:02:51.476Z,0.80
2022-12-11T06:07:53.819Z,0.80
2022-12-11T06:12:56.164Z,0.80
2022-12-11T06:17:58.382Z,0.90
2022-12-11T06:23:01.598Z,0.90
2022-12-11T06:28:04.166Z,0.80
2022-12-11T06:33:06.904Z,0.80
2022-12-11T06:38:10.681Z,0.80
2022-12-11T06:43:13.087Z,0.80
2022-12-11T06:48:15.460Z,0.80
2022-12-11T06:53:17.861Z,0.80
2022-12-11T06:58:20.223Z,0.80
2022-12-11T07:03:22.433Z,0.70
2022-12-11T07:08:24.698Z,0.80
2022-12-11T07:13:26.953Z,0.80
2022-12-11T07:18:29.229Z,0.80
2022-12-11T07:23:31.463Z,0.80
2022-12-11T07:28:34.792Z,0.70
2022-12-11T07:33:37.319Z,0.60
2022-12-11T07:38:40.538Z,0.60
2022-12-11T07:43:43.509Z,0.60
2022-12-11T07:48:47.529Z,0.60
2022-12-11T07:53:50.515Z,0.70
2022-12-11T07:58:52.837Z,0.60
2022-12-11T08:03:56.170Z,0.50
2022-12-11T08:08:59.662Z,0.50
2022-12-11T08:14:02.640Z,0.50
2022-12-11T08:19:04.875Z,0.50
2022-12-11T08:24:08.065Z,0.60
2022-12-11T08:29:11.185Z,0.60
2022-12-11T08:34:14.192Z,0.60
2022-12-11T08:39:16.452Z,0.50
2022-12-11T08:44:19.873Z,0.50
2022-12-11T08:49:22.123Z,0.50
2022-12-11T08:54:24.342Z,0.50
2022-12-11T08:59:26.560Z,0.40
2022-12-11T09:04:28.764Z,0.40
2022-12-11T09:09:30.996Z,0.30
2022-12-11T09:14:33.289Z,0.40
2022-12-11T09:19:35.500Z,0.40
2022-12-11T09:24:38.404Z,0.40
2022-12-11T09:29:41.003Z,0.30
2022-12-11T09:34:43.337Z,0.30
2022-12-11T09:39:45.676Z,0.40
2022-12-11T09:45:00.604Z,0.40
2022-12-11T09:50:09.025Z,0.40
2022-12-11T09:55:20.533Z,0.60
2022-12-11T10:00:26.725Z,0.70
2022-12-11T10:05:38.316Z,0.70
2022-12-11T10:10:59.065Z,0.70
2022-12-11T10:16:14.168Z,0.70
2022-12-11T10:21:18.336Z,0.80
2022-12-11T10:26:23.086Z,0.90
2022-12-11T10:31:46.909Z,0.90
2022-12-11T10:36:49.212Z,0.90
2022-12-11T10:41:53.167Z,0.90
2022-12-11T10:47:13.764Z,0.90
2022-12-11T10:52:23.697Z,0.90
2022-12-11T10:57:32.845Z,0.70
2022-12-11T11:02:38.607Z,0.80
2022-12-11T11:07:41.147Z,0.80
2022-12-11T11:12:48.595Z,0.80
2022-12-11T11:17:55.877Z,0.80
2022-12-11T11:23:01.355Z,0.80
2022-12-11T11:28:21.259Z,0.90
2022-12-11T11:33:24.701Z,1.10
2022-12-11T11:38:37.748Z,1.20
2022-12-11T11:43:56.260Z,1.30
2022-12-11T11:49:17.597Z,1.20
2022-12-11T11:54:33.508Z,1.20
2022-12-11T11:59:42.801Z,1.20
2022-12-11T12:04:46.842Z,1.20
2022-12-11T12:09:55.643Z,1.30
2022-12-11T12:15:20.099Z,1.30
2022-12-11T12:20:44.164Z,1.20
2022-12-11T12:26:18.748Z,1.20
2022-12-11T12:31:38.216Z,1.20
2022-12-11T12:36:51.312Z,1.20
2022-12-11T12:42:07.951Z,1.20
2022-12-11T12:47:14.472Z,1.30
2022-12-11T12:52:18.139Z,1.20
2022-12-11T12:57:21.212Z,1.30
2022-12-11T13:02:23.459Z,1.30
2022-12-11T13:07:30.244Z,1.30
2022-12-11T13:12:45.336Z,1.30
2022-12-11T13:17:47.545Z,1.20
2022-12-11T13:23:07.772Z,1.20
2022-12-11T13:28:26.651Z,1.20
2022-12-11T13:33:30.533Z,1.20
2022-12-11T13:38:33.306Z,1.10
2022-12-11T13:43:35.885Z,1.10
2022-12-11T13:48:57.286Z,1.10
2022-12-11T13:54:16.488Z,1.10
2022-12-11T13:59:32.731Z,1.10
2022-12-11T14:04:35.533Z,1.10
2022-12-11T14:09:45.701Z,1.10
2022-12-11T14:14:57.000Z,1.10
2022-12-11T14:20:02.745Z,1.10
2022-12-11T14:25:19.584Z,1.10
2022-12-11T14:30:33.168Z,1.10
2022-12-11T14:35:41.987Z,1.00
2022-12-11T14:40:49.514Z,1.10
2022-12-11T14:45:57.974Z,0.90
2022-12-11T14:51:03.701Z,0.90
2022-12-11T14:56:09.522Z,1.00
2022-12-11T15:01:29.727Z,1.00
2022-12-11T15:06:34.574Z,1.10
2022-12-11T15:11:36.824Z,1.10
2022-12-11T15:16:41.798Z,1.00
2022-12-11T15:21:44.181Z,0.90
2022-12-11T15:26:47.998Z,1.00
2022-12-11T15:32:08.794Z,1.00
2022-12-11T15:37:25.271Z,1.00
2022-12-11T15:42:39.978Z,0.90
2022-12-11T15:47:43.488Z,0.80
2022-12-11T15:52:46.537Z,0.70
2022-12-11T15:57:58.053Z,0.60
2022-12-11T16:03:00.337Z,0.60
2022-12-11T16:08:02.609Z,0.60
2022-12-11T16:13:04.920Z,0.50
2022-12-11T16:18:10.252Z,0.40
2022-12-11T16:23:13.488Z,0.50
2022-12-11T16:28:18.230Z,0.40
2022-12-11T16:33:20.463Z,0.40
2022-12-11T16:38:22.677Z,0.30
2022-12-11T16:43:24.912Z,0.30
2022-12-11T16:48:27.153Z,0.20
2022-12-11T16:53:31.129Z,0.20
2022-12-11T16:58:33.692Z,0.20
2022-12-11T17:03:35.918Z,0.10
2022-12-11T17:08:38.631Z,0.00
2022-12-11T17:13:41.339Z,0.10
2022-12-11T17:18:43.958Z,0.00
2022-12-11T17:23:46.325Z,0.00
2022-12-11T17:28:48.592Z,-0.10
2022-12-11T17:33:50.905Z,-0.10
2022-12-11T17:38:54.206Z,-0.10
2022-12-11T17:43:56.579Z,-0.10
2022-12-11T17:49:00.226Z,-0.10
2022-12-11T17:54:02.646Z,-0.10
2022-12-11T17:59:04.957Z,0.00
2022-12-11T18:04:07.265Z,0.00
2022-12-11T18:09:10.297Z,0.00
2022-12-11T18:14:17.162Z,0.00
2022-12-11T18:19:20.257Z,0.10
2022-12-11T18:24:23.040Z,0.10
2022-12-11T18:29:26.128Z,0.10
2022-12-11T18:34:28.436Z,0.10
2022-12-11T18:39:30.653Z,0.10
2022-12-11T18:44:32.988Z,0.10
2022-12-11T18:49:36.608Z,0.10
2022-12-11T18:54:38.996Z,0.10
2022-12-11T18:59:41.254Z,0.10
2022-12-11T19:04:43.497Z,0.10
2022-12-11T19:09:48.325Z,0.10
2022-12-11T19:14:50.845Z,0.20
2022-12-11T19:19:53.194Z,0.30
2022-12-11T19:24:55.402Z,0.30
2022-12-11T19:29:59.681Z,0.40
2022-12-11T19:35:01.886Z,0.40
2022-12-11T19:40:04.835Z,0.50
2022-12-11T19:45:07.491Z,0.50
2022-12-11T19:50:09.899Z,0.60
2022-12-11T19:55:13.484Z,0.60
2022-12-11T20:00:16.214Z,0.60
2022-12-11T20:05:18.897Z,0.70
2022-12-11T20:10:21.133Z,0.60
2022-12-11T20:15:24.257Z,0.60
2022-12-11T20:20:28.902Z,0.40
2022-12-11T20:25:31.199Z,0.40
2022-12-11T20:30:33.543Z,0.30
2022-12-11T20:35:35.822Z,0.20
2022-12-11T20:40:38.147Z,0.20
2022-12-11T20:45:40.545Z,0.10
2022-12-11T20:50:42.834Z,0.00
2022-12-11T20:55:45.086Z,0.00
2022-12-11T21:00:48.181Z,-0.10
2022-12-11T21:05:50.681Z,-0.20
2022-12-11T21:10:52.947Z,-0.30
2022-12-11T21:15:56.800Z,-0.30
2022-12-11T21:20:59.591Z,-0.30
2022-12-11T21:26:03.116Z,-0.40
2022-12-11T21:31:09.905Z,-0.40
2022-12-11T21:36:13.828Z,-0.40
2022-12-11T21:41:24.668Z,-0.60
2022-12-11T21:46:29.250Z,-0.60
2022-12-11T21:51:37.646Z,-0.50
2022-12-11T21:56:42.067Z,-0.40
2022-12-11T22:01:46.280Z,-0.40
2022-12-11T22:06:48.613Z,-0.30
2022-12-11T22:11:55.177Z,-0.30
2022-12-11T22:17:00.629Z,-0.30
2022-12-11T22:22:02.948Z,-0.40
2022-12-11T22:27:05.801Z,-0.40
2022-12-11T22:32:08.127Z,-0.50
2022-12-11T22:37:10.353Z,-0.40
2022-12-11T22:42:12.601Z,-0.40
2022-12-11T22:47:15.063Z,-0.50
2022-12-11T22:52:17.306Z,-0.40
2022-12-11T22:57:19.690Z,-0.40
2022-12-11T23:02:21.963Z,-0.40
2022-12-11T23:07:24.257Z,-0.40
2022-12-11T23:12:26.495Z,-0.50
2022-12-11T23:17:28.813Z,-0.60
2022-12-11T23:22:31.538Z,-0.60
2022-12-11T23:27:33.822Z,-0.70
2022-12-11T23:32:36.138Z,-0.70
2022-12-11T23:37:39.338Z,-0.70
2022-12-11T23:42:41.575Z,-0.80
2022-12-11T23:47:44.419Z,-0.80
2022-12-11T23:52:46.670Z,-0.80
2022-12-11T23:57:48.923Z,-0.90
